createdAt,value
2023-04-19T00:00:21.397Z,9.43
2023-04-19T00:00:53.033Z,8.80
2023-04-19T00:01:25.075Z,10.35
2023-04-19T00:01:56.791Z,10.20
2023-04-19T00:02:29.153Z,8.73
2023-04-19T00:03:02.278Z,9.38
2023-04-19T00:03:34.445Z,11.75
2023-04-19T00:04:08.095Z,10.20
2023-04-19T00:04:40.110Z,9.25
2023-04-19T00:05:13.835Z,9.57
2023-04-19T00:05:46.206Z,9.98
2023-04-19T00:06:17.863Z,9.60
2023-04-19T00:06:51.272Z,11.35
2023-04-19T00:07:22.868Z,9.32
2023-04-19T00:07:54.723Z,9.10
2023-04-19T00:08:26.625Z,8.00
2023-04-19T00:08:58.291Z,10.27
2023-04-19T00:09:29.956Z,9.52
2023-04-19T00:10:01.627Z,9.85
2023-04-19T00:10:33.379Z,9.65
2023-04-19T00:11:05.021Z,7.88
2023-04-19T00:11:36.700Z,10.57
2023-04-19T00:12:08.342Z,7.75
2023-04-19T00:12:39.986Z,7.72
2023-04-19T00:13:11.772Z,8.93
2023-04-19T00:13:43.516Z,8.00
2023-04-19T00:14:15.437Z,9.02
2023-04-19T00:14:47.133Z,8.45
2023-04-19T00:15:19.017Z,10.13
2023-04-19T00:15:50.588Z,8.75
2023-04-19T00:16:22.182Z,8.77
2023-04-19T00:16:53.864Z,8.00
2023-04-19T00:17:25.498Z,8.35
2023-04-19T00:17:57.163Z,9.95
2023-04-19T00:18:28.774Z,10.73
2023-04-19T00:19:00.589Z,8.63
2023-04-19T00:19:32.308Z,7.95
2023-04-19T00:20:08.447Z,9.70
2023-04-19T00:20:40.175Z,8.55
2023-04-19T00:21:11.768Z,9.50
2023-04-19T00:21:43.354Z,8.25
2023-04-19T00:22:14.958Z,8.53
2023-04-19T00:22:46.583Z,8.00
2023-04-19T00:23:18.423Z,8.95
2023-04-19T00:23:49.981Z,8.30
2023-04-19T00:24:21.562Z,7.63
2023-04-19T00:24:53.726Z,12.00
2023-04-19T00:25:25.789Z,8.50
2023-04-19T00:25:57.386Z,8.93
2023-04-19T00:26:29.030Z,7.72
2023-04-19T00:27:00.696Z,9.40
2023-04-19T00:27:32.361Z,8.20
2023-04-19T00:28:04.135Z,8.15
2023-04-19T00:28:35.778Z,9.18
2023-04-19T00:29:07.391Z,8.68
2023-04-19T00:29:39.030Z,9.07
2023-04-19T00:30:11.268Z,8.15
2023-04-19T00:30:42.877Z,7.90
2023-04-19T00:31:14.546Z,6.88
2023-04-19T00:31:46.264Z,8.50
2023-04-19T00:32:17.884Z,9.32
2023-04-19T00:32:49.530Z,7.50
2023-04-19T00:33:21.377Z,10.43
2023-04-19T00:33:52.977Z,9.32
2023-04-19T00:34:24.680Z,8.60
2023-04-19T00:34:56.272Z,9.70
2023-04-19T00:35:27.972Z,8.48
2023-04-19T00:35:59.568Z,7.60
2023-04-19T00:36:31.454Z,7.47
2023-04-19T00:37:05.424Z,8.80
2023-04-19T00:37:37.054Z,7.68
2023-04-19T00:38:08.678Z,7.70
2023-04-19T00:38:40.802Z,7.22
2023-04-19T00:39:12.636Z,7.82
2023-04-19T00:39:44.295Z,7.50
2023-04-19T00:40:15.972Z,9.05
2023-04-19T00:40:47.617Z,9.13
2023-04-19T00:41:19.278Z,8.27
2023-04-19T00:41:50.904Z,8.27
2023-04-19T00:42:22.485Z,9.07
2023-04-19T00:42:54.330Z,8.68
2023-04-19T00:43:26.059Z,8.63
2023-04-19T00:43:57.697Z,7.57
2023-04-19T00:44:29.360Z,10.00
2023-04-19T00:45:01.000Z,8.00
2023-04-19T00:45:33.815Z,9.80
2023-04-19T00:46:06.061Z,9.00
2023-04-19T00:46:38.156Z,8.48
2023-04-19T00:47:09.976Z,7.80
2023-04-19T00:47:41.783Z,8.50
2023-04-19T00:48:14.460Z,8.40
2023-04-19T00:48:46.078Z,10.87
2023-04-19T00:49:20.072Z,8.02
2023-04-19T00:49:52.073Z,8.20
2023-04-19T00:50:23.771Z,8.32
2023-04-19T00:50:55.644Z,9.02
2023-04-19T00:51:27.586Z,10.00
2023-04-19T00:51:59.258Z,7.28
2023-04-19T00:52:33.242Z,9.05
2023-04-19T00:53:04.946Z,9.18
2023-04-19T00:53:36.798Z,8.70
2023-04-19T00:54:09.412Z,9.90
2023-04-19T00:54:43.643Z,9.25
2023-04-19T00:55:15.501Z,9.70
2023-04-19T00:55:48.095Z,7.70
2023-04-19T00:56:22.686Z,8.18
2023-04-19T00:56:54.365Z,8.25
2023-04-19T00:57:25.994Z,8.93
2023-04-19T00:57:57.640Z,8.63
2023-04-19T00:58:31.569Z,9.73
2023-04-19T00:59:03.383Z,7.13
2023-04-19T00:59:35.705Z,9.37
2023-04-19T01:00:09.771Z,11.65
2023-04-19T01:00:41.456Z,9.48
2023-04-19T01:01:13.209Z,8.18
2023-04-19T01:01:45.359Z,10.02
2023-04-19T01:02:17.716Z,10.98
2023-04-19T01:02:49.425Z,10.35
2023-04-19T01:03:22.348Z,9.77
2023-04-19T01:03:54.350Z,8.75
2023-04-19T01:04:26.316Z,8.88
2023-04-19T01:04:58.307Z,8.03
2023-04-19T01:05:30.742Z,8.73
2023-04-19T01:06:02.556Z,8.43
2023-04-19T01:06:36.939Z,7.75
2023-04-19T01:07:09.143Z,8.02
2023-04-19T01:07:41.011Z,8.63
2023-04-19T01:08:12.634Z,9.10
2023-04-19T01:08:44.389Z,8.20
2023-04-19T01:09:16.005Z,8.10
2023-04-19T01:09:47.681Z,8.23
2023-04-19T01:10:19.359Z,9.95
2023-04-19T01:10:50.999Z,8.77
2023-04-19T01:11:26.341Z,8.02
2023-04-19T01:11:57.961Z,7.65
2023-04-19T01:12:29.623Z,10.18
2023-04-19T01:13:01.189Z,11.60
2023-04-19T01:13:32.756Z,9.05
2023-04-19T01:14:04.452Z,8.68
2023-04-19T01:14:36.078Z,9.60
2023-04-19T01:15:08.482Z,9.35
2023-04-19T01:15:40.125Z,8.27
2023-04-19T01:16:11.954Z,7.53
2023-04-19T01:16:44.042Z,9.18
2023-04-19T01:17:16.849Z,8.40
2023-04-19T01:17:48.509Z,8.15
2023-04-19T01:18:20.470Z,8.20
2023-04-19T01:18:52.162Z,9.32
2023-04-19T01:19:23.781Z,9.57
2023-04-19T01:20:08.274Z,7.80
2023-04-19T01:20:40.380Z,8.35
2023-04-19T01:21:12.864Z,7.43
2023-04-19T01:21:44.516Z,7.95
2023-04-19T01:22:23.246Z,8.80
2023-04-19T01:22:54.925Z,9.02
2023-04-19T01:23:26.516Z,8.45
2023-04-19T01:23:58.148Z,8.85
2023-04-19T01:24:30.780Z,8.23
2023-04-19T01:25:02.425Z,9.45
2023-04-19T01:25:34.065Z,8.68
2023-04-19T01:26:06.444Z,8.63
2023-04-19T01:26:38.162Z,8.60
2023-04-19T01:27:09.829Z,7.90
2023-04-19T01:27:41.529Z,7.80
2023-04-19T01:28:13.201Z,11.23
2023-04-19T01:28:44.844Z,8.82
2023-04-19T01:29:17.779Z,8.80
2023-04-19T01:29:49.551Z,10.00
2023-04-19T01:30:21.164Z,7.75
2023-04-19T01:30:54.156Z,7.78
2023-04-19T01:31:25.813Z,10.43
2023-04-19T01:31:57.432Z,9.05
2023-04-19T01:32:29.078Z,8.43
2023-04-19T01:33:00.866Z,9.27
2023-04-19T01:33:32.605Z,8.95
2023-04-19T01:34:04.211Z,8.57
2023-04-19T01:34:35.836Z,8.85
2023-04-19T01:35:07.886Z,8.63
2023-04-19T01:35:39.509Z,7.38
2023-04-19T01:36:11.149Z,8.85
2023-04-19T01:36:42.899Z,8.95
2023-04-19T01:37:14.537Z,10.30
2023-04-19T01:37:46.252Z,9.00
2023-04-19T01:38:18.077Z,9.10
2023-04-19T01:38:50.197Z,7.95
2023-04-19T01:39:22.060Z,8.40
2023-04-19T01:39:53.693Z,8.27
2023-04-19T01:40:26.091Z,8.23
2023-04-19T01:40:57.693Z,7.70
2023-04-19T01:41:29.907Z,8.05
2023-04-19T01:42:01.629Z,7.57
2023-04-19T01:42:33.288Z,8.30
2023-04-19T01:43:06.604Z,7.72
2023-04-19T01:43:38.187Z,8.13
2023-04-19T01:44:09.877Z,7.93
2023-04-19T01:44:41.505Z,8.80
2023-04-19T01:45:13.104Z,7.25
2023-04-19T01:45:45.513Z,9.32
2023-04-19T01:46:17.127Z,7.47
2023-04-19T01:46:48.765Z,8.27
2023-04-19T01:47:20.480Z,8.10
2023-04-19T01:47:52.409Z,12.37
2023-04-19T01:48:24.170Z,8.02
2023-04-19T01:48:55.789Z,9.73
2023-04-19T01:49:27.478Z,8.65
2023-04-19T01:49:59.048Z,9.30
2023-04-19T01:50:31.648Z,10.00
2023-04-19T01:51:03.324Z,8.32
2023-04-19T01:51:35.023Z,7.85
2023-04-19T01:52:06.671Z,9.10
2023-04-19T01:52:38.251Z,9.13
2023-04-19T01:53:09.947Z,8.73
2023-04-19T01:53:41.612Z,9.07
2023-04-19T01:54:13.337Z,7.35
2023-04-19T01:54:45.127Z,8.00
2023-04-19T01:55:16.740Z,8.75
2023-04-19T01:55:48.382Z,8.48
2023-04-19T01:56:21.911Z,8.95
2023-04-19T01:56:53.608Z,8.85
2023-04-19T01:57:25.360Z,9.30
2023-04-19T01:57:56.970Z,9.90
2023-04-19T01:58:28.622Z,9.07
2023-04-19T01:59:00.322Z,7.65
2023-04-19T01:59:31.956Z,9.27
2023-04-19T02:00:04.205Z,9.90
2023-04-19T02:00:36.056Z,9.32
2023-04-19T02:01:09.864Z,7.95
2023-04-19T02:01:41.562Z,8.02
2023-04-19T02:02:13.287Z,7.90
2023-04-19T02:02:45.295Z,9.57
2023-04-19T02:03:17.309Z,8.80
2023-04-19T02:03:49.346Z,9.13
2023-04-19T02:04:22.215Z,9.00
2023-04-19T02:04:53.934Z,9.38
2023-04-19T02:05:25.649Z,10.82
2023-04-19T02:05:57.297Z,8.85
2023-04-19T02:06:28.889Z,8.45
2023-04-19T02:07:00.512Z,10.88
2023-04-19T02:07:32.163Z,8.48
2023-04-19T02:08:03.893Z,7.57
2023-04-19T02:08:35.681Z,10.05
2023-04-19T02:09:08.316Z,9.35
2023-04-19T02:09:39.983Z,9.98
2023-04-19T02:10:11.853Z,8.35
2023-04-19T02:10:43.489Z,8.20
2023-04-19T02:11:15.192Z,8.60
2023-04-19T02:11:46.809Z,9.85
2023-04-19T02:12:18.503Z,12.43
2023-04-19T02:12:50.172Z,9.57
2023-04-19T02:13:21.855Z,10.35
2023-04-19T02:13:53.519Z,10.05
2023-04-19T02:14:25.149Z,7.93
2023-04-19T02:15:02.039Z,8.45
2023-04-19T02:15:33.725Z,8.15
2023-04-19T02:16:06.234Z,9.98
2023-04-19T02:16:37.909Z,8.65
2023-04-19T02:17:09.550Z,11.57
2023-04-19T02:17:41.551Z,9.25
2023-04-19T02:18:13.585Z,10.10
2023-04-19T02:18:46.970Z,8.40
2023-04-19T02:19:18.655Z,9.52
2023-04-19T02:19:50.453Z,8.73
2023-04-19T02:20:22.055Z,10.77
2023-04-19T02:20:53.640Z,9.48
2023-04-19T02:21:26.058Z,12.13
2023-04-19T02:21:57.812Z,8.82
2023-04-19T02:22:29.453Z,10.20
2023-04-19T02:23:01.100Z,9.43
2023-04-19T02:23:33.129Z,8.52
2023-04-19T02:24:04.947Z,11.75
2023-04-19T02:24:36.574Z,9.00
2023-04-19T02:25:08.578Z,8.73
2023-04-19T02:25:40.174Z,9.20
2023-04-19T02:26:13.060Z,8.82
2023-04-19T02:26:44.724Z,10.68
2023-04-19T02:27:17.264Z,11.27
2023-04-19T02:27:48.865Z,9.25
2023-04-19T02:28:20.601Z,9.70
2023-04-19T02:28:53.037Z,9.52
2023-04-19T02:29:24.715Z,11.13
2023-04-19T02:29:56.646Z,9.52
2023-04-19T02:30:28.340Z,11.95
2023-04-19T02:31:05.854Z,9.32
2023-04-19T02:31:37.540Z,10.80
2023-04-19T02:32:09.449Z,10.48
2023-04-19T02:32:41.268Z,10.90
2023-04-19T02:33:12.948Z,10.30
2023-04-19T02:33:46.886Z,10.48
2023-04-19T02:34:18.731Z,14.80
2023-04-19T02:34:50.357Z,11.63
2023-04-19T02:35:22.032Z,10.63
2023-04-19T02:35:53.646Z,12.85
2023-04-19T02:36:26.392Z,10.20
2023-04-19T02:36:58.236Z,11.30
2023-04-19T02:37:29.850Z,10.57
2023-04-19T02:38:03.263Z,10.48
2023-04-19T02:38:34.890Z,11.38
2023-04-19T02:39:06.921Z,11.30
2023-04-19T02:39:38.813Z,10.65
2023-04-19T02:40:10.671Z,14.07
2023-04-19T02:40:42.279Z,13.77
2023-04-19T02:41:13.888Z,12.43
2023-04-19T02:41:45.535Z,10.52
2023-04-19T02:42:17.185Z,11.25
2023-04-19T02:42:48.922Z,12.57
2023-04-19T02:43:20.558Z,11.05
2023-04-19T02:43:52.176Z,14.15
2023-04-19T02:44:23.793Z,11.88
2023-04-19T02:44:55.474Z,10.40
2023-04-19T02:45:27.111Z,10.68
2023-04-19T02:45:58.759Z,11.93
2023-04-19T02:46:30.478Z,13.40
2023-04-19T02:47:02.289Z,11.93
2023-04-19T02:47:34.043Z,11.02
2023-04-19T02:48:06.031Z,11.05
2023-04-19T02:48:37.759Z,10.35
2023-04-19T02:49:09.572Z,11.88
2023-04-19T02:49:41.655Z,13.50
2023-04-19T02:50:15.234Z,10.73
2023-04-19T02:50:46.886Z,12.25
2023-04-19T02:51:18.540Z,10.52
2023-04-19T02:51:51.187Z,10.82
2023-04-19T02:52:22.786Z,12.05
2023-04-19T02:52:54.447Z,11.68
2023-04-19T02:53:26.153Z,12.02
2023-04-19T02:53:57.761Z,11.95
2023-04-19T02:54:29.373Z,11.35
2023-04-19T02:55:01.072Z,11.35
2023-04-19T02:55:33.403Z,12.40
2023-04-19T02:56:05.294Z,13.30
2023-04-19T02:56:36.919Z,12.90
2023-04-19T02:57:08.529Z,13.32
2023-04-19T02:57:40.209Z,11.85
2023-04-19T02:58:11.815Z,14.65
2023-04-19T02:58:43.452Z,11.30
2023-04-19T02:59:15.059Z,13.18
2023-04-19T02:59:46.674Z,12.85
2023-04-19T03:00:18.464Z,11.63
2023-04-19T03:00:50.043Z,13.13
2023-04-19T03:01:21.647Z,13.43
2023-04-19T03:01:53.264Z,13.50
2023-04-19T03:02:25.878Z,11.00
2023-04-19T03:02:57.698Z,11.30
2023-04-19T03:03:29.484Z,11.13
2023-04-19T03:04:01.354Z,11.45
2023-04-19T03:04:33.072Z,12.00
2023-04-19T03:05:05.208Z,15.57
2023-04-19T03:05:36.852Z,15.55
2023-04-19T03:06:09.114Z,11.95
2023-04-19T03:06:42.216Z,13.73
2023-04-19T03:07:14.181Z,11.65
2023-04-19T03:07:45.764Z,12.23
2023-04-19T03:08:17.779Z,12.52
2023-04-19T03:08:49.579Z,14.00
2023-04-19T03:09:21.244Z,14.18
2023-04-19T03:09:52.941Z,11.35
2023-04-19T03:10:24.873Z,13.02
2023-04-19T03:10:56.476Z,13.13
2023-04-19T03:11:28.078Z,14.00
2023-04-19T03:11:59.661Z,13.82
2023-04-19T03:12:31.264Z,14.25
2023-04-19T03:13:02.886Z,14.82
2023-04-19T03:13:34.554Z,13.38
2023-04-19T03:14:06.160Z,13.55
2023-04-19T03:14:37.897Z,14.30
2023-04-19T03:15:10.562Z,13.45
2023-04-19T03:15:42.191Z,15.35
2023-04-19T03:16:13.807Z,13.93
2023-04-19T03:16:45.430Z,13.07
2023-04-19T03:17:17.079Z,12.60
2023-04-19T03:17:48.726Z,13.38
2023-04-19T03:18:20.952Z,13.95
2023-04-19T03:18:52.543Z,13.73
2023-04-19T03:19:24.222Z,13.65
2023-04-19T03:19:56.762Z,14.25
2023-04-19T03:20:28.350Z,12.73
2023-04-19T03:21:00.077Z,13.07
2023-04-19T03:21:31.801Z,15.50
2023-04-19T03:22:03.421Z,13.60
2023-04-19T03:22:35.020Z,14.30
2023-04-19T03:23:06.637Z,14.48
2023-04-19T03:23:38.246Z,13.10
2023-04-19T03:24:09.878Z,14.30
2023-04-19T03:24:41.611Z,15.73
2023-04-19T03:25:13.663Z,14.52
2023-04-19T03:25:45.915Z,13.57
2023-04-19T03:26:17.508Z,14.68
2023-04-19T03:26:49.127Z,15.25
2023-04-19T03:27:20.742Z,14.80
2023-04-19T03:27:52.378Z,13.35
2023-04-19T03:28:24.008Z,13.82
2023-04-19T03:28:55.619Z,14.02
2023-04-19T03:29:27.265Z,15.48
2023-04-19T03:29:58.884Z,15.30
2023-04-19T03:30:30.497Z,14.48
2023-04-19T03:31:02.684Z,15.77
2023-04-19T03:31:34.330Z,15.27
2023-04-19T03:32:06.856Z,16.08
2023-04-19T03:32:38.606Z,14.73
2023-04-19T03:33:10.558Z,13.43
2023-04-19T03:33:42.338Z,15.32
2023-04-19T03:34:14.082Z,14.55
2023-04-19T03:34:46.130Z,15.15
2023-04-19T03:35:17.990Z,15.57
2023-04-19T03:35:49.646Z,14.60
2023-04-19T03:36:21.876Z,16.10
2023-04-19T03:36:53.473Z,15.43
2023-04-19T03:37:25.097Z,13.18
2023-04-19T03:37:56.712Z,16.33
2023-04-19T03:38:28.482Z,14.90
2023-04-19T03:39:00.155Z,15.82
2023-04-19T03:39:32.139Z,15.00
2023-04-19T03:40:04.179Z,15.00
2023-04-19T03:40:37.961Z,16.00
2023-04-19T03:41:20.652Z,15.25
2023-04-19T03:41:52.337Z,14.73
2023-04-19T03:42:24.011Z,16.02
2023-04-19T03:42:55.700Z,15.57
2023-04-19T03:43:27.289Z,14.70
2023-04-19T03:43:59.255Z,15.57
2023-04-19T03:44:35.081Z,15.68
2023-04-19T03:45:07.143Z,17.30
2023-04-19T03:45:38.778Z,16.05
2023-04-19T03:46:10.410Z,17.80
2023-04-19T03:46:42.239Z,16.00
2023-04-19T03:47:13.920Z,15.65
2023-04-19T03:47:46.096Z,16.45
2023-04-19T03:48:17.802Z,15.95
2023-04-19T03:48:49.405Z,16.95
2023-04-19T03:49:21.024Z,17.38
2023-04-19T03:49:52.670Z,15.93
2023-04-19T03:50:24.312Z,17.63
2023-04-19T03:50:56.192Z,17.70
2023-04-19T03:51:27.860Z,15.52
2023-04-19T03:51:59.506Z,16.80
2023-04-19T03:52:31.374Z,17.67
2023-04-19T03:53:04.760Z,18.70
2023-04-19T03:53:36.818Z,17.67
2023-04-19T03:54:08.446Z,18.85
2023-04-19T03:54:40.058Z,17.52
2023-04-19T03:55:12.575Z,16.67
2023-04-19T03:55:44.236Z,15.63
2023-04-19T03:56:15.917Z,15.93
2023-04-19T03:56:48.234Z,15.98
2023-04-19T03:57:19.939Z,19.00
2023-04-19T03:57:51.589Z,17.80
2023-04-19T03:58:23.182Z,17.10
2023-04-19T03:58:54.798Z,18.50
2023-04-19T03:59:26.620Z,16.73
2023-04-19T03:59:58.229Z,17.60
2023-04-19T04:00:29.891Z,18.25
2023-04-19T04:01:01.517Z,17.52
2023-04-19T04:01:33.514Z,18.10
2023-04-19T04:02:07.037Z,18.85
2023-04-19T04:02:39.842Z,17.90
2023-04-19T04:03:11.846Z,17.17
2023-04-19T04:03:43.755Z,19.05
2023-04-19T04:04:16.161Z,16.48
2023-04-19T04:04:54.101Z,19.15
2023-04-19T04:05:28.299Z,18.80
2023-04-19T04:06:00.545Z,19.30
2023-04-19T04:06:32.189Z,15.65
2023-04-19T04:07:03.898Z,16.02
2023-04-19T04:07:35.549Z,16.30
2023-04-19T04:08:07.204Z,18.77
2023-04-19T04:08:38.886Z,18.02
2023-04-19T04:09:10.479Z,18.08
2023-04-19T04:09:42.138Z,18.15
2023-04-19T04:10:13.737Z,17.45
2023-04-19T04:10:45.508Z,17.88
2023-04-19T04:11:17.206Z,17.27
2023-04-19T04:11:48.868Z,17.92
2023-04-19T04:12:20.477Z,19.45
2023-04-19T04:12:52.204Z,18.15
2023-04-19T04:13:23.802Z,17.17
2023-04-19T04:13:56.644Z,17.52
2023-04-19T04:14:28.283Z,21.70
2023-04-19T04:14:59.948Z,17.85
2023-04-19T04:15:31.558Z,18.70
2023-04-19T04:16:03.341Z,16.52
2023-04-19T04:16:35.005Z,16.75
2023-04-19T04:17:06.694Z,18.55
2023-04-19T04:17:38.347Z,18.75
2023-04-19T04:18:10.044Z,16.52
2023-04-19T04:18:41.684Z,15.80
2023-04-19T04:19:13.866Z,18.40
2023-04-19T04:19:45.452Z,19.77
2023-04-19T04:20:17.175Z,18.48
2023-04-19T04:20:48.913Z,17.77
2023-04-19T04:21:20.549Z,17.85
2023-04-19T04:21:52.158Z,17.45
2023-04-19T04:22:23.773Z,19.25
2023-04-19T04:22:55.809Z,19.60
2023-04-19T04:23:28.442Z,18.88
2023-04-19T04:24:01.773Z,18.08
2023-04-19T04:24:41.466Z,17.58
2023-04-19T04:25:13.482Z,20.17
2023-04-19T04:25:45.057Z,17.35
2023-04-19T04:26:16.726Z,19.17
2023-04-19T04:26:49.952Z,18.92
2023-04-19T04:27:22.025Z,18.33
2023-04-19T04:27:54.594Z,18.50
2023-04-19T04:28:27.277Z,19.73
2023-04-19T04:28:58.883Z,18.95
2023-04-19T04:29:33.101Z,20.25
2023-04-19T04:30:06.455Z,17.45
2023-04-19T04:30:38.034Z,21.65
2023-04-19T04:31:10.041Z,18.80
2023-04-19T04:31:41.659Z,21.70
2023-04-19T04:32:14.380Z,17.55
2023-04-19T04:32:47.058Z,17.98
2023-04-19T04:33:18.845Z,18.58
2023-04-19T04:33:51.056Z,17.25
2023-04-19T04:34:23.033Z,18.55
2023-04-19T04:34:54.619Z,18.83
2023-04-19T04:35:29.015Z,18.08
2023-04-19T04:36:00.729Z,18.48
2023-04-19T04:36:32.314Z,19.10
2023-04-19T04:37:04.232Z,18.73
2023-04-19T04:37:36.093Z,18.50
2023-04-19T04:38:17.476Z,19.35
2023-04-19T04:38:53.274Z,19.17
2023-04-19T04:39:24.945Z,18.48
2023-04-19T04:39:56.643Z,18.15
2023-04-19T04:40:28.338Z,19.80
2023-04-19T04:40:59.961Z,19.13
2023-04-19T04:41:31.664Z,19.70
2023-04-19T04:42:03.379Z,19.20
2023-04-19T04:42:35.720Z,16.77
2023-04-19T04:43:08.163Z,18.55
2023-04-19T04:43:39.824Z,18.35
2023-04-19T04:44:13.085Z,20.85
2023-04-19T04:44:45.059Z,18.17
2023-04-19T04:45:18.530Z,18.88
2023-04-19T04:45:50.735Z,18.00
2023-04-19T04:46:22.411Z,19.27
2023-04-19T04:46:54.039Z,19.25
2023-04-19T04:47:26.321Z,20.15
2023-04-19T04:47:58.056Z,21.33
2023-04-19T04:48:31.408Z,20.75
2023-04-19T04:49:03.423Z,18.52
2023-04-19T04:49:34.996Z,19.42
2023-04-19T04:50:07.523Z,18.50
2023-04-19T04:50:39.619Z,19.55
2023-04-19T04:51:11.416Z,20.70
2023-04-19T04:51:43.072Z,18.77
2023-04-19T04:52:14.741Z,21.58
2023-04-19T04:52:46.361Z,19.17
2023-04-19T04:53:18.048Z,19.13
2023-04-19T04:53:49.722Z,19.88
2023-04-19T04:54:21.345Z,20.23
2023-04-19T04:54:52.970Z,17.13
2023-04-19T04:55:24.614Z,20.17
2023-04-19T04:55:56.284Z,20.80
2023-04-19T04:56:27.974Z,18.20
2023-04-19T04:57:00.954Z,20.73
2023-04-19T04:57:32.556Z,18.25
2023-04-19T04:58:05.673Z,19.25
2023-04-19T04:58:37.439Z,18.80
2023-04-19T04:59:09.379Z,18.80
2023-04-19T04:59:41.011Z,17.52
2023-04-19T05:00:13.207Z,17.02
2023-04-19T05:00:44.852Z,20.70
2023-04-19T05:01:19.598Z,19.13
2023-04-19T05:01:51.323Z,19.33
2023-04-19T05:02:24.116Z,18.02
2023-04-19T05:02:55.915Z,19.13
2023-04-19T05:03:27.659Z,19.00
2023-04-19T05:03:59.428Z,17.42
2023-04-19T05:04:31.049Z,22.13
2023-04-19T05:05:03.379Z,19.67
2023-04-19T05:05:34.976Z,18.38
2023-04-19T05:06:07.045Z,20.52
2023-04-19T05:06:41.020Z,18.95
2023-04-19T05:07:12.767Z,19.40
2023-04-19T05:07:44.381Z,19.83
2023-04-19T05:08:16.083Z,17.20
2023-04-19T05:08:47.714Z,19.20
2023-04-19T05:09:19.323Z,18.42
2023-04-19T05:09:50.949Z,20.70
2023-04-19T05:10:22.574Z,19.67
2023-04-19T05:10:54.259Z,22.25
2023-04-19T05:11:27.147Z,20.20
2023-04-19T05:11:58.791Z,20.77
2023-04-19T05:12:30.425Z,20.23
2023-04-19T05:13:02.086Z,17.25
2023-04-19T05:13:33.823Z,17.77
2023-04-19T05:14:05.369Z,19.13
2023-04-19T05:14:36.924Z,19.00
2023-04-19T05:15:09.112Z,18.30
2023-04-19T05:15:40.749Z,19.88
2023-04-19T05:16:12.465Z,21.00
2023-04-19T05:16:44.046Z,21.58
2023-04-19T05:17:15.708Z,18.35
2023-04-19T05:17:47.349Z,18.52
2023-04-19T05:18:18.974Z,20.75
2023-04-19T05:18:50.678Z,18.77
2023-04-19T05:19:22.324Z,20.95
2023-04-19T05:19:53.912Z,19.83
2023-04-19T05:20:25.883Z,19.23
2023-04-19T05:20:58.227Z,19.55
2023-04-19T05:21:29.837Z,18.90
2023-04-19T05:22:01.559Z,19.13
2023-04-19T05:22:33.331Z,19.80
2023-04-19T05:23:05.034Z,17.92
2023-04-19T05:23:38.029Z,19.13
2023-04-19T05:24:10.257Z,18.45
2023-04-19T05:24:42.542Z,18.30
2023-04-19T05:25:14.193Z,20.45
2023-04-19T05:25:46.579Z,19.25
2023-04-19T05:26:19.380Z,18.48
2023-04-19T05:26:50.990Z,19.02
2023-04-19T05:27:22.579Z,18.02
2023-04-19T05:27:54.353Z,18.48
2023-04-19T05:28:26.046Z,18.42
2023-04-19T05:28:57.921Z,18.15
2023-04-19T05:29:29.614Z,18.40
2023-04-19T05:30:01.244Z,17.42
2023-04-19T05:30:32.825Z,17.40
2023-04-19T05:31:04.591Z,17.52
2023-04-19T05:31:36.508Z,16.50
2023-04-19T05:32:08.190Z,16.13
2023-04-19T05:32:39.962Z,16.75
2023-04-19T05:33:11.641Z,16.00
2023-04-19T05:33:43.258Z,17.45
2023-04-19T05:34:15.037Z,18.15
2023-04-19T05:34:46.736Z,17.45
2023-04-19T05:35:20.115Z,16.73
2023-04-19T05:35:51.741Z,18.65
2023-04-19T05:36:26.974Z,14.50
2023-04-19T05:36:58.693Z,16.90
2023-04-19T05:37:30.684Z,15.27
2023-04-19T05:38:02.945Z,14.25
2023-04-19T05:38:34.580Z,17.15
2023-04-19T05:39:06.791Z,14.95
2023-04-19T05:39:38.488Z,18.15
2023-04-19T05:40:10.756Z,14.73
2023-04-19T05:40:42.426Z,15.68
2023-04-19T05:41:14.088Z,15.73
2023-04-19T05:41:45.744Z,13.77
2023-04-19T05:42:17.352Z,15.15
2023-04-19T05:42:51.526Z,16.33
2023-04-19T05:43:26.102Z,14.20
2023-04-19T05:43:57.754Z,14.15
2023-04-19T05:44:29.362Z,15.48
2023-04-19T05:45:01.365Z,15.00
2023-04-19T05:45:34.074Z,17.35
2023-04-19T05:46:05.814Z,15.43
2023-04-19T05:46:37.574Z,16.13
2023-04-19T05:47:09.293Z,15.52
2023-04-19T05:47:40.913Z,14.88
2023-04-19T05:48:12.487Z,14.37
2023-04-19T05:48:44.129Z,12.63
2023-04-19T05:49:15.712Z,14.93
2023-04-19T05:49:47.323Z,15.15
2023-04-19T05:50:20.648Z,15.02
2023-04-19T05:50:56.713Z,14.80
2023-04-19T05:51:28.332Z,15.00
2023-04-19T05:52:00.020Z,14.43
2023-04-19T05:52:31.845Z,14.05
2023-04-19T05:53:03.958Z,13.90
2023-04-19T05:53:35.710Z,12.50
2023-04-19T05:54:07.361Z,12.85
2023-04-19T05:54:39.041Z,12.93
2023-04-19T05:55:10.645Z,12.35
2023-04-19T05:55:42.857Z,13.75
2023-04-19T05:56:14.492Z,12.93
2023-04-19T05:56:46.044Z,13.40
2023-04-19T05:57:18.647Z,15.20
2023-04-19T05:57:50.426Z,16.00
2023-04-19T05:58:23.363Z,15.95
2023-04-19T05:58:56.334Z,17.57
2023-04-19T05:59:28.011Z,13.63
2023-04-19T06:00:32.638Z,13.18
2023-04-19T06:01:04.665Z,13.50
2023-04-19T06:01:36.737Z,14.65
2023-04-19T06:02:08.533Z,13.27
2023-04-19T06:02:40.565Z,15.20
2023-04-19T06:03:12.679Z,14.00
2023-04-19T06:03:44.940Z,13.48
2023-04-19T06:04:17.162Z,12.57
2023-04-19T06:04:49.514Z,19.42
2023-04-19T06:05:21.803Z,14.82
2023-04-19T06:05:53.601Z,13.18
2023-04-19T06:06:25.421Z,13.75
2023-04-19T06:06:57.205Z,14.30
2023-04-19T06:07:32.946Z,12.77
2023-04-19T06:08:05.968Z,11.48
2023-04-19T06:08:37.532Z,14.25
2023-04-19T06:09:09.142Z,14.90
2023-04-19T06:09:40.767Z,12.43
2023-04-19T06:10:12.482Z,13.10
2023-04-19T06:10:54.604Z,13.63
2023-04-19T06:11:38.303Z,14.88
2023-04-19T06:12:14.651Z,13.02
2023-04-19T06:12:46.277Z,13.70
2023-04-19T06:13:17.956Z,13.05
2023-04-19T06:13:51.212Z,11.52
2023-04-19T06:14:23.050Z,12.82
2023-04-19T06:14:54.896Z,12.88
2023-04-19T06:15:27.163Z,13.17
2023-04-19T06:15:58.763Z,12.95
2023-04-19T06:16:30.350Z,12.25
2023-04-19T06:17:02.011Z,12.77
2023-04-19T06:17:33.633Z,12.27
2023-04-19T06:18:07.243Z,10.80
2023-04-19T06:18:38.854Z,11.30
2023-04-19T06:19:10.553Z,14.43
2023-04-19T06:19:42.627Z,12.75
2023-04-19T06:20:14.383Z,13.05
2023-04-19T06:20:46.402Z,11.57
2023-04-19T06:21:18.022Z,12.90
2023-04-19T06:21:49.718Z,13.35
2023-04-19T06:22:21.562Z,11.23
2023-04-19T06:22:53.205Z,13.63
2023-04-19T06:23:25.575Z,12.00
2023-04-19T06:23:57.285Z,11.40
2023-04-19T06:24:29.001Z,12.43
2023-04-19T06:25:01.576Z,11.05
2023-04-19T06:25:33.656Z,11.95
2023-04-19T06:26:05.376Z,12.60
2023-04-19T06:26:37.018Z,11.98
2023-04-19T06:27:09.336Z,11.70
2023-04-19T06:27:41.017Z,11.95
2023-04-19T06:28:12.829Z,11.10
2023-04-19T06:28:44.404Z,11.20
2023-04-19T06:29:16.082Z,12.10
2023-04-19T06:29:48.809Z,12.18
2023-04-19T06:30:22.295Z,11.65
2023-04-19T06:30:54.077Z,11.45
2023-04-19T06:31:25.907Z,11.47
2023-04-19T06:31:57.571Z,11.70
2023-04-19T06:32:29.310Z,11.32
2023-04-19T06:33:01.063Z,10.77
2023-04-19T06:33:33.429Z,12.05
2023-04-19T06:34:05.087Z,10.25
2023-04-19T06:34:36.698Z,11.70
2023-04-19T06:35:08.754Z,11.90
2023-04-19T06:35:40.525Z,11.23
2023-04-19T06:36:12.172Z,12.50
2023-04-19T06:36:43.781Z,11.30
2023-04-19T06:37:15.380Z,10.23
2023-04-19T06:37:47.012Z,10.35
2023-04-19T06:38:18.612Z,11.65
2023-04-19T06:38:50.452Z,11.18
2023-04-19T06:39:22.130Z,11.88
2023-04-19T06:39:53.773Z,11.18
2023-04-19T06:40:26.596Z,13.15
2023-04-19T06:40:58.271Z,11.45
2023-04-19T06:41:30.017Z,10.60
2023-04-19T06:42:02.420Z,9.97
2023-04-19T06:42:35.204Z,11.90
2023-04-19T06:43:06.892Z,11.48
2023-04-19T06:43:42.932Z,11.07
2023-04-19T06:44:14.771Z,12.18
2023-04-19T06:44:47.053Z,10.52
2023-04-19T06:45:18.761Z,10.90
2023-04-19T06:45:58.564Z,11.23
2023-04-19T06:46:30.780Z,11.93
2023-04-19T06:47:02.661Z,9.85
2023-04-19T06:47:35.680Z,10.73
2023-04-19T06:48:07.566Z,11.57
2023-04-19T06:48:39.350Z,11.13
2023-04-19T06:49:11.214Z,11.60
2023-04-19T06:49:42.892Z,10.88
2023-04-19T06:50:14.507Z,12.20
2023-04-19T06:50:46.137Z,11.38
2023-04-19T06:51:17.770Z,12.75
2023-04-19T06:51:49.747Z,11.52
2023-04-19T06:52:22.378Z,12.45
2023-04-19T06:52:54.259Z,10.57
2023-04-19T06:53:27.428Z,10.98
2023-04-19T06:53:59.088Z,11.60
2023-04-19T06:54:31.067Z,10.23
2023-04-19T06:55:02.821Z,11.90
2023-04-19T06:55:34.544Z,10.43
2023-04-19T06:56:06.641Z,11.25
2023-04-19T06:56:46.837Z,14.13
2023-04-19T06:57:19.040Z,12.02
2023-04-19T06:57:50.722Z,10.75
2023-04-19T06:58:22.289Z,12.13